sensor_id;sensor_type;location;lat;lon;timestamp;temperature;humidity
9486;DHT22;4781;48.776;9.200;2023-11-21T00:01:33;8.20;99.90
9486;DHT22;4781;48.776;9.200;2023-11-21T00:04:02;8.20;99.90
9486;DHT22;4781;48.776;9.200;2023-11-21T00:06:30;8.20;99.90
9486;DHT22;4781;48.776;9.200;2023-11-21T00:08:58;8.20;99.90
9486;DHT22;4781;48.776;9.200;2023-11-21T00:11:27;8.20;99.90
9486;DHT22;4781;48.776;9.200;2023-11-21T00:13:55;8.20;99.90
9486;DHT22;4781;48.776;9.200;2023-11-21T00:16:24;8.20;99.90
9486;DHT22;4781;48.776;9.200;2023-11-21T00:18:52;8.20;99.90
9486;DHT22;4781;48.776;9.200;2023-11-21T00:21:21;8.20;99.90
9486;DHT22;4781;48.776;9.200;2023-11-21T00:23:49;8.20;99.90
9486;DHT22;4781;48.776;9.200;2023-11-21T00:26:17;8.20;99.90
9486;DHT22;4781;48.776;9.200;2023-11-21T00:28:46;8.20;99.90
9486;DHT22;4781;48.776;9.200;2023-11-21T00:31:14;8.20;99.90
9486;DHT22;4781;48.776;9.200;2023-11-21T00:33:43;8.20;99.90
9486;DHT22;4781;48.776;9.200;2023-11-21T00:36:11;8.20;99.90
9486;DHT22;4781;48.776;9.200;2023-11-21T00:38:40;8.20;99.90
9486;DHT22;4781;48.776;9.200;2023-11-21T00:41:08;8.20;99.90
9486;DHT22;4781;48.776;9.200;2023-11-21T00:43:36;8.30;99.90
9486;DHT22;4781;48.776;9.200;2023-11-21T00:46:05;8.20;99.90
9486;DHT22;4781;48.776;9.200;2023-11-21T00:48:34;8.20;99.90
9486;DHT22;4781;48.776;9.200;2023-11-21T00:51:02;8.20;99.90
9486;DHT22;4781;48.776;9.200;2023-11-21T00:53:32;8.20;99.90
9486;DHT22;4781;48.776;9.200;2023-11-21T00:56:01;8.30;99.90
9486;DHT22;4781;48.776;9.200;2023-11-21T00:58:29;8.30;99.90
9486;DHT22;4781;48.776;9.200;2023-11-21T01:00:57;8.30;99.90
9486;DHT22;4781;48.776;9.200;2023-11-21T01:03:26;8.30;99.90
9486;DHT22;4781;48.776;9.200;2023-11-21T01:05:54;8.30;99.90
9486;DHT22;4781;48.776;9.200;2023-11-21T01:08:22;8.20;99.90
9486;DHT22;4781;48.776;9.200;2023-11-21T01:10:51;8.30;99.90
9486;DHT22;4781;48.776;9.200;2023-11-21T01:13:20;8.30;99.90
9486;DHT22;4781;48.776;9.200;2023-11-21T01:15:48;8.30;99.90
9486;DHT22;4781;48.776;9.200;2023-11-21T01:18:17;8.30;99.90
9486;DHT22;4781;48.776;9.200;2023-11-21T01:20:45;8.30;99.90
9486;DHT22;4781;48.776;9.200;2023-11-21T01:23:14;8.30;99.90
9486;DHT22;4781;48.776;9.200;2023-11-21T01:25:42;8.30;99.90
9486;DHT22;4781;48.776;9.200;2023-11-21T01:28:11;8.30;99.90
9486;DHT22;4781;48.776;9.200;2023-11-21T01:30:39;8.30;99.90
9486;DHT22;4781;48.776;9.200;2023-11-21T01:33:07;8.30;99.90
9486;DHT22;4781;48.776;9.200;2023-11-21T01:35:36;8.30;99.90
9486;DHT22;4781;48.776;9.200;2023-11-21T01:38:04;8.30;99.90
9486;DHT22;4781;48.776;9.200;2023-11-21T01:40:35;8.30;99.90
9486;DHT22;4781;48.776;9.200;2023-11-21T01:43:03;8.30;99.90
9486;DHT22;4781;48.776;9.200;2023-11-21T01:45:32;8.40;99.90
9486;DHT22;4781;48.776;9.200;2023-11-21T01:48:01;8.30;99.90
9486;DHT22;4781;48.776;9.200;2023-11-21T01:50:30;8.30;99.90
9486;DHT22;4781;48.776;9.200;2023-11-21T01:53:00;8.30;99.90
9486;DHT22;4781;48.776;9.200;2023-11-21T01:55:29;8.30;99.90
9486;DHT22;4781;48.776;9.200;2023-11-21T01:57:58;8.40;99.90
9486;DHT22;4781;48.776;9.200;2023-11-21T02:00:28;8.30;99.90
9486;DHT22;4781;48.776;9.200;2023-11-21T02:02:56;8.30;99.90
9486;DHT22;4781;48.776;9.200;2023-11-21T02:05:25;8.40;99.90
9486;DHT22;4781;48.776;9.200;2023-11-21T02:07:54;8.40;99.90
9486;DHT22;4781;48.776;9.200;2023-11-21T02:10:23;8.30;99.90
9486;DHT22;4781;48.776;9.200;2023-11-21T02:12:52;8.40;99.90
9486;DHT22;4781;48.776;9.200;2023-11-21T02:15:20;8.30;99.90
9486;DHT22;4781;48.776;9.200;2023-11-21T02:17:51;8.30;99.90
9486;DHT22;4781;48.776;9.200;2023-11-21T02:20:21;8.30;99.90
9486;DHT22;4781;48.776;9.200;2023-11-21T02:22:52;8.30;99.90
9486;DHT22;4781;48.776;9.200;2023-11-21T02:25:23;8.30;99.90
9486;DHT22;4781;48.776;9.200;2023-11-21T02:27:55;8.30;99.90
9486;DHT22;4781;48.776;9.200;2023-11-21T02:30:24;8.30;99.90
9486;DHT22;4781;48.776;9.200;2023-11-21T02:32:54;8.30;99.90
9486;DHT22;4781;48.776;9.200;2023-11-21T02:35:26;8.20;99.90
9486;DHT22;4781;48.776;9.200;2023-11-21T02:37:54;8.20;99.90
9486;DHT22;4781;48.776;9.200;2023-11-21T02:40:23;8.20;99.90
9486;DHT22;4781;48.776;9.200;2023-11-21T02:42:54;8.20;99.90
9486;DHT22;4781;48.776;9.200;2023-11-21T02:45:24;8.20;99.90
9486;DHT22;4781;48.776;9.200;2023-11-21T02:47:53;8.30;99.90
9486;DHT22;4781;48.776;9.200;2023-11-21T02:50:23;8.30;99.90
9486;DHT22;4781;48.776;9.200;2023-11-21T02:52:51;8.30;99.90
9486;DHT22;4781;48.776;9.200;2023-11-21T02:55:20;8.30;99.90
9486;DHT22;4781;48.776;9.200;2023-11-21T02:57:48;8.30;99.90
9486;DHT22;4781;48.776;9.200;2023-11-21T03:00:17;8.30;99.90
9486;DHT22;4781;48.776;9.200;2023-11-21T03:02:46;8.20;99.90
9486;DHT22;4781;48.776;9.200;2023-11-21T03:05:14;8.20;99.90
9486;DHT22;4781;48.776;9.200;2023-11-21T03:07:42;8.20;99.90
9486;DHT22;4781;48.776;9.200;2023-11-21T03:10:11;8.20;99.90
9486;DHT22;4781;48.776;9.200;2023-11-21T03:12:40;8.20;99.90
9486;DHT22;4781;48.776;9.200;2023-11-21T03:15:09;8.20;99.90
9486;DHT22;4781;48.776;9.200;2023-11-21T03:17:37;8.20;99.90
9486;DHT22;4781;48.776;9.200;2023-11-21T03:20:06;8.10;99.90
9486;DHT22;4781;48.776;9.200;2023-11-21T03:22:36;8.10;99.90
9486;DHT22;4781;48.776;9.200;2023-11-21T03:25:05;8.10;99.90
9486;DHT22;4781;48.776;9.200;2023-11-21T03:27:36;8.20;99.90
9486;DHT22;4781;48.776;9.200;2023-11-21T03:30:07;8.10;99.90
9486;DHT22;4781;48.776;9.200;2023-11-21T03:32:36;8.10;99.90
9486;DHT22;4781;48.776;9.200;2023-11-21T03:35:04;8.10;99.90
9486;DHT22;4781;48.776;9.200;2023-11-21T03:37:33;8.20;99.90
9486;DHT22;4781;48.776;9.200;2023-11-21T03:40:02;8.20;99.90
9486;DHT22;4781;48.776;9.200;2023-11-21T03:42:30;8.20;99.90
9486;DHT22;4781;48.776;9.200;2023-11-21T03:44:59;8.20;99.90
9486;DHT22;4781;48.776;9.200;2023-11-21T03:47:28;8.20;99.90
9486;DHT22;4781;48.776;9.200;2023-11-21T03:49:57;8.20;99.90
9486;DHT22;4781;48.776;9.200;2023-11-21T03:52:26;8.20;99.90
9486;DHT22;4781;48.776;9.200;2023-11-21T03:54:55;8.20;99.90
9486;DHT22;4781;48.776;9.200;2023-11-21T03:57:23;8.20;99.90
9486;DHT22;4781;48.776;9.200;2023-11-21T03:59:51;8.20;99.90
9486;DHT22;4781;48.776;9.200;2023-11-21T04:02:20;8.30;99.90
9486;DHT22;4781;48.776;9.200;2023-11-21T04:04:48;8.20;99.90
9486;DHT22;4781;48.776;9.200;2023-11-21T04:07:17;8.20;99.90
9486;DHT22;4781;48.776;9.200;2023-11-21T04:09:45;8.20;99.90
9486;DHT22;4781;48.776;9.200;2023-11-21T04:12:14;8.10;99.90
9486;DHT22;4781;48.776;9.200;2023-11-21T04:14:42;8.10;99.90
9486;DHT22;4781;48.776;9.200;2023-11-21T04:17:10;8.10;99.90
9486;DHT22;4781;48.776;9.200;2023-11-21T04:19:39;8.10;99.90
9486;DHT22;4781;48.776;9.200;2023-11-21T04:22:10;8.10;99.90
9486;DHT22;4781;48.776;9.200;2023-11-21T04:24:38;8.10;99.90
9486;DHT22;4781;48.776;9.200;2023-11-21T04:27:07;8.00;99.90
9486;DHT22;4781;48.776;9.200;2023-11-21T04:29:35;8.10;99.90
9486;DHT22;4781;48.776;9.200;2023-11-21T04:32:04;8.10;99.90
9486;DHT22;4781;48.776;9.200;2023-11-21T04:34:32;8.00;99.90
9486;DHT22;4781;48.776;9.200;2023-11-21T04:37:01;8.00;99.90
9486;DHT22;4781;48.776;9.200;2023-11-21T04:39:30;8.00;99.90
9486;DHT22;4781;48.776;9.200;2023-11-21T04:41:58;8.00;99.90
9486;DHT22;4781;48.776;9.200;2023-11-21T04:44:26;8.00;99.90
9486;DHT22;4781;48.776;9.200;2023-11-21T04:46:55;8.10;99.90
9486;DHT22;4781;48.776;9.200;2023-11-21T04:49:23;8.10;99.90
9486;DHT22;4781;48.776;9.200;2023-11-21T04:51:51;8.10;99.90
9486;DHT22;4781;48.776;9.200;2023-11-21T04:54:20;8.00;99.90
9486;DHT22;4781;48.776;9.200;2023-11-21T04:56:48;7.90;99.90
9486;DHT22;4781;48.776;9.200;2023-11-21T04:59:16;7.90;99.90
9486;DHT22;4781;48.776;9.200;2023-11-21T05:01:45;7.90;99.90
9486;DHT22;4781;48.776;9.200;2023-11-21T05:04:13;7.90;99.90
9486;DHT22;4781;48.776;9.200;2023-11-21T05:06:42;7.90;99.90
9486;DHT22;4781;48.776;9.200;2023-11-21T05:09:10;7.90;99.90
9486;DHT22;4781;48.776;9.200;2023-11-21T05:11:39;7.80;99.90
9486;DHT22;4781;48.776;9.200;2023-11-21T05:14:07;7.80;99.90
9486;DHT22;4781;48.776;9.200;2023-11-21T05:16:36;7.90;99.90
9486;DHT22;4781;48.776;9.200;2023-11-21T05:19:04;7.90;99.90
9486;DHT22;4781;48.776;9.200;2023-11-21T05:21:33;7.90;99.90
9486;DHT22;4781;48.776;9.200;2023-11-21T05:24:02;7.90;99.90
9486;DHT22;4781;48.776;9.200;2023-11-21T05:26:31;7.90;99.90
9486;DHT22;4781;48.776;9.200;2023-11-21T05:29:00;7.90;99.90
9486;DHT22;4781;48.776;9.200;2023-11-21T05:31:30;7.90;99.90
9486;DHT22;4781;48.776;9.200;2023-11-21T05:33:58;8.00;99.90
9486;DHT22;4781;48.776;9.200;2023-11-21T05:36:27;8.00;99.90
9486;DHT22;4781;48.776;9.200;2023-11-21T05:38:55;8.00;99.90
9486;DHT22;4781;48.776;9.200;2023-11-21T05:41:23;7.90;99.90
9486;DHT22;4781;48.776;9.200;2023-11-21T05:43:52;7.90;99.90
9486;DHT22;4781;48.776;9.200;2023-11-21T05:46:20;7.90;99.90
9486;DHT22;4781;48.776;9.200;2023-11-21T05:48:49;8.00;99.90
9486;DHT22;4781;48.776;9.200;2023-11-21T05:51:17;8.00;99.90
9486;DHT22;4781;48.776;9.200;2023-11-21T05:53:45;8.00;99.90
9486;DHT22;4781;48.776;9.200;2023-11-21T05:56:14;8.00;99.90
9486;DHT22;4781;48.776;9.200;2023-11-21T05:58:43;8.00;99.90
9486;DHT22;4781;48.776;9.200;2023-11-21T06:01:12;8.00;99.90
9486;DHT22;4781;48.776;9.200;2023-11-21T06:03:40;8.00;99.90
9486;DHT22;4781;48.776;9.200;2023-11-21T06:06:09;8.00;99.90
9486;DHT22;4781;48.776;9.200;2023-11-21T06:08:38;8.00;99.90
9486;DHT22;4781;48.776;9.200;2023-11-21T06:11:06;7.90;99.90
9486;DHT22;4781;48.776;9.200;2023-11-21T06:13:34;8.00;99.90
9486;DHT22;4781;48.776;9.200;2023-11-21T06:16:03;8.00;99.90
9486;DHT22;4781;48.776;9.200;2023-11-21T06:18:32;8.00;99.90
9486;DHT22;4781;48.776;9.200;2023-11-21T06:21:01;8.00;99.90
9486;DHT22;4781;48.776;9.200;2023-11-21T06:23:31;8.00;99.90
9486;DHT22;4781;48.776;9.200;2023-11-21T06:25:59;8.00;99.90
9486;DHT22;4781;48.776;9.200;2023-11-21T06:28:27;8.00;99.90
9486;DHT22;4781;48.776;9.200;2023-11-21T06:30:56;7.70;99.90
9486;DHT22;4781;48.776;9.200;2023-11-21T06:33:25;8.00;99.90
9486;DHT22;4781;48.776;9.200;2023-11-21T06:35:54;8.10;99.90
9486;DHT22;4781;48.776;9.200;2023-11-21T06:38:22;8.10;99.90
9486;DHT22;4781;48.776;9.200;2023-11-21T06:40:50;8.10;99.90
9486;DHT22;4781;48.776;9.200;2023-11-21T06:43:19;8.10;99.90
9486;DHT22;4781;48.776;9.200;2023-11-21T06:45:48;8.20;99.90
9486;DHT22;4781;48.776;9.200;2023-11-21T06:48:17;8.20;99.90
9486;DHT22;4781;48.776;9.200;2023-11-21T06:50:45;8.20;99.90
9486;DHT22;4781;48.776;9.200;2023-11-21T06:53:14;8.20;99.90
9486;DHT22;4781;48.776;9.200;2023-11-21T06:55:42;8.20;99.90
9486;DHT22;4781;48.776;9.200;2023-11-21T06:58:11;8.20;99.90
9486;DHT22;4781;48.776;9.200;2023-11-21T07:00:41;8.20;99.90
9486;DHT22;4781;48.776;9.200;2023-11-21T07:03:11;8.20;99.90
9486;DHT22;4781;48.776;9.200;2023-11-21T07:05:39;8.20;99.90
9486;DHT22;4781;48.776;9.200;2023-11-21T07:08:07;8.20;99.90
9486;DHT22;4781;48.776;9.200;2023-11-21T07:10:36;8.20;99.90
9486;DHT22;4781;48.776;9.200;2023-11-21T07:13:04;8.10;99.90
9486;DHT22;4781;48.776;9.200;2023-11-21T07:15:33;8.10;99.90
9486;DHT22;4781;48.776;9.200;2023-11-21T07:18:01;8.10;99.90
9486;DHT22;4781;48.776;9.200;2023-11-21T07:20:30;8.20;99.90
9486;DHT22;4781;48.776;9.200;2023-11-21T07:22:59;8.20;99.90
9486;DHT22;4781;48.776;9.200;2023-11-21T07:25:27;8.20;99.90
9486;DHT22;4781;48.776;9.200;2023-11-21T07:27:55;8.20;99.90
9486;DHT22;4781;48.776;9.200;2023-11-21T07:30:24;8.20;99.90
9486;DHT22;4781;48.776;9.200;2023-11-21T07:32:52;8.20;99.90
9486;DHT22;4781;48.776;9.200;2023-11-21T07:35:21;8.20;99.90
9486;DHT22;4781;48.776;9.200;2023-11-21T07:37:49;8.30;99.90
9486;DHT22;4781;48.776;9.200;2023-11-21T07:40:17;8.30;99.90
9486;DHT22;4781;48.776;9.200;2023-11-21T07:42:46;8.30;99.90
9486;DHT22;4781;48.776;9.200;2023-11-21T07:45:15;8.30;99.90
9486;DHT22;4781;48.776;9.200;2023-11-21T07:47:43;8.30;99.90
9486;DHT22;4781;48.776;9.200;2023-11-21T07:50:12;8.30;99.90
9486;DHT22;4781;48.776;9.200;2023-11-21T07:52:40;8.30;99.90
9486;DHT22;4781;48.776;9.200;2023-11-21T07:55:08;8.30;99.90
9486;DHT22;4781;48.776;9.200;2023-11-21T07:57:38;8.30;99.90
9486;DHT22;4781;48.776;9.200;2023-11-21T08:00:07;8.40;99.90
9486;DHT22;4781;48.776;9.200;2023-11-21T08:02:38;8.30;99.90
9486;DHT22;4781;48.776;9.200;2023-11-21T08:05:09;8.40;99.90
9486;DHT22;4781;48.776;9.200;2023-11-21T08:07:37;8.40;99.90
9486;DHT22;4781;48.776;9.200;2023-11-21T08:10:07;8.40;99.90
9486;DHT22;4781;48.776;9.200;2023-11-21T08:12:37;8.50;99.90
9486;DHT22;4781;48.776;9.200;2023-11-21T08:15:06;8.50;99.90
9486;DHT22;4781;48.776;9.200;2023-11-21T08:17:35;8.60;99.90
9486;DHT22;4781;48.776;9.200;2023-11-21T08:20:04;8.60;99.90
9486;DHT22;4781;48.776;9.200;2023-11-21T08:22:33;8.60;99.90
9486;DHT22;4781;48.776;9.200;2023-11-21T08:25:01;8.60;99.90
9486;DHT22;4781;48.776;9.200;2023-11-21T08:27:31;8.60;99.90
9486;DHT22;4781;48.776;9.200;2023-11-21T08:29:59;8.70;99.90
9486;DHT22;4781;48.776;9.200;2023-11-21T08:32:29;8.70;99.90
9486;DHT22;4781;48.776;9.200;2023-11-21T08:35:01;8.70;99.90
9486;DHT22;4781;48.776;9.200;2023-11-21T08:37:29;8.70;99.90
9486;DHT22;4781;48.776;9.200;2023-11-21T08:39:59;8.80;99.90
9486;DHT22;4781;48.776;9.200;2023-11-21T08:42:28;8.80;99.90
9486;DHT22;4781;48.776;9.200;2023-11-21T08:44:57;8.80;99.90
9486;DHT22;4781;48.776;9.200;2023-11-21T08:47:25;8.70;99.90
9486;DHT22;4781;48.776;9.200;2023-11-21T08:49:53;8.70;99.90
9486;DHT22;4781;48.776;9.200;2023-11-21T08:52:22;8.80;99.90
9486;DHT22;4781;48.776;9.200;2023-11-21T08:54:50;8.80;99.90
9486;DHT22;4781;48.776;9.200;2023-11-21T08:57:20;8.90;99.90
9486;DHT22;4781;48.776;9.200;2023-11-21T08:59:52;8.90;99.90
9486;DHT22;4781;48.776;9.200;2023-11-21T09:02:23;8.90;99.90
9486;DHT22;4781;48.776;9.200;2023-11-21T09:04:53;8.90;99.90
9486;DHT22;4781;48.776;9.200;2023-11-21T09:07:21;8.90;99.90
9486;DHT22;4781;48.776;9.200;2023-11-21T09:09:50;9.00;99.90
9486;DHT22;4781;48.776;9.200;2023-11-21T09:12:18;9.00;99.90
9486;DHT22;4781;48.776;9.200;2023-11-21T09:14:47;9.10;99.90
9486;DHT22;4781;48.776;9.200;2023-11-21T09:17:16;9.20;99.90
9486;DHT22;4781;48.776;9.200;2023-11-21T09:19:45;9.20;99.90
9486;DHT22;4781;48.776;9.200;2023-11-21T09:22:15;9.30;99.90
9486;DHT22;4781;48.776;9.200;2023-11-21T09:24:44;9.40;99.90
9486;DHT22;4781;48.776;9.200;2023-11-21T09:27:13;9.40;99.90
9486;DHT22;4781;48.776;9.200;2023-11-21T09:29:41;9.50;99.90
9486;DHT22;4781;48.776;9.200;2023-11-21T09:32:10;9.60;99.90
9486;DHT22;4781;48.776;9.200;2023-11-21T09:34:40;9.60;99.90
9486;DHT22;4781;48.776;9.200;2023-11-21T09:37:08;9.50;99.90
9486;DHT22;4781;48.776;9.200;2023-11-21T09:39:37;9.50;99.90
9486;DHT22;4781;48.776;9.200;2023-11-21T09:42:11;9.50;99.90
9486;DHT22;4781;48.776;9.200;2023-11-21T09:47:18;9.40;99.90
9486;DHT22;4781;48.776;9.200;2023-11-21T09:49:48;9.40;99.90
9486;DHT22;4781;48.776;9.200;2023-11-21T09:52:25;9.40;99.90
9486;DHT22;4781;48.776;9.200;2023-11-21T09:54:55;9.50;99.90
9486;DHT22;4781;48.776;9.200;2023-11-21T09:57:25;9.50;99.90
9486;DHT22;4781;48.776;9.200;2023-11-21T09:59:54;9.60;99.90
9486;DHT22;4781;48.776;9.200;2023-11-21T10:02:27;9.60;99.90
9486;DHT22;4781;48.776;9.200;2023-11-21T10:04:58;9.70;99.90
9486;DHT22;4781;48.776;9.200;2023-11-21T10:07:27;9.70;99.90
9486;DHT22;4781;48.776;9.200;2023-11-21T10:09:57;9.80;99.90
9486;DHT22;4781;48.776;9.200;2023-11-21T10:12:27;9.80;99.90
9486;DHT22;4781;48.776;9.200;2023-11-21T10:14:58;9.80;99.90
9486;DHT22;4781;48.776;9.200;2023-11-21T10:17:28;9.90;99.90
9486;DHT22;4781;48.776;9.200;2023-11-21T10:20:00;9.90;99.90
9486;DHT22;4781;48.776;9.200;2023-11-21T10:22:29;9.90;99.90
9486;DHT22;4781;48.776;9.200;2023-11-21T10:24:57;9.90;99.90
9486;DHT22;4781;48.776;9.200;2023-11-21T10:27:27;9.90;99.90
9486;DHT22;4781;48.776;9.200;2023-11-21T10:29:55;9.80;99.90
9486;DHT22;4781;48.776;9.200;2023-11-21T10:32:28;9.80;99.90
9486;DHT22;4781;48.776;9.200;2023-11-21T10:34:57;9.80;99.90
9486;DHT22;4781;48.776;9.200;2023-11-21T10:37:30;9.80;99.90
9486;DHT22;4781;48.776;9.200;2023-11-21T10:40:01;9.70;99.90
9486;DHT22;4781;48.776;9.200;2023-11-21T10:42:32;9.80;99.90
9486;DHT22;4781;48.776;9.200;2023-11-21T10:45:01;9.70;99.90
9486;DHT22;4781;48.776;9.200;2023-11-21T10:47:32;9.80;99.90
9486;DHT22;4781;48.776;9.200;2023-11-21T10:50:03;9.80;99.90
9486;DHT22;4781;48.776;9.200;2023-11-21T10:52:32;9.80;99.90
9486;DHT22;4781;48.776;9.200;2023-11-21T10:55:05;9.70;99.90
9486;DHT22;4781;48.776;9.200;2023-11-21T10:57:48;9.70;99.90
9486;DHT22;4781;48.776;9.200;2023-11-21T11:00:19;9.70;99.90
9486;DHT22;4781;48.776;9.200;2023-11-21T11:02:54;9.70;99.90
9486;DHT22;4781;48.776;9.200;2023-11-21T11:05:24;9.70;99.90
9486;DHT22;4781;48.776;9.200;2023-11-21T11:08:01;9.70;99.90
9486;DHT22;4781;48.776;9.200;2023-11-21T11:10:32;9.80;99.90
9486;DHT22;4781;48.776;9.200;2023-11-21T11:13:01;9.70;99.90
9486;DHT22;4781;48.776;9.200;2023-11-21T11:15:30;9.60;99.90
9486;DHT22;4781;48.776;9.200;2023-11-21T11:18:00;9.60;99.90
9486;DHT22;4781;48.776;9.200;2023-11-21T11:20:37;9.70;99.90
9486;DHT22;4781;48.776;9.200;2023-11-21T11:23:20;9.80;99.90
9486;DHT22;4781;48.776;9.200;2023-11-21T11:29:31;10.00;99.90
9486;DHT22;4781;48.776;9.200;2023-11-21T11:32:23;10.00;99.90
9486;DHT22;4781;48.776;9.200;2023-11-21T11:35:00;10.10;99.90
9486;DHT22;4781;48.776;9.200;2023-11-21T11:37:28;10.20;99.90
9486;DHT22;4781;48.776;9.200;2023-11-21T11:39:57;10.20;99.90
9486;DHT22;4781;48.776;9.200;2023-11-21T11:42:27;10.20;99.90
9486;DHT22;4781;48.776;9.200;2023-11-21T11:44:57;10.20;99.90
9486;DHT22;4781;48.776;9.200;2023-11-21T11:47:31;10.10;99.90
9486;DHT22;4781;48.776;9.200;2023-11-21T11:50:07;10.10;99.90
9486;DHT22;4781;48.776;9.200;2023-11-21T11:52:44;10.10;99.90
9486;DHT22;4781;48.776;9.200;2023-11-21T11:55:14;10.10;99.90
9486;DHT22;4781;48.776;9.200;2023-11-21T11:57:52;10.20;99.90
9486;DHT22;4781;48.776;9.200;2023-11-21T12:03:04;10.10;99.90
9486;DHT22;4781;48.776;9.200;2023-11-21T12:05:35;10.10;99.90
9486;DHT22;4781;48.776;9.200;2023-11-21T12:08:07;10.20;99.90
9486;DHT22;4781;48.776;9.200;2023-11-21T12:10:37;10.20;99.90
9486;DHT22;4781;48.776;9.200;2023-11-21T12:13:09;10.30;99.90
9486;DHT22;4781;48.776;9.200;2023-11-21T12:15:39;10.30;99.90
9486;DHT22;4781;48.776;9.200;2023-11-21T12:18:08;10.30;99.90
9486;DHT22;4781;48.776;9.200;2023-11-21T12:20:36;10.30;99.90
9486;DHT22;4781;48.776;9.200;2023-11-21T12:23:09;10.20;99.90
9486;DHT22;4781;48.776;9.200;2023-11-21T12:25:38;10.20;99.90
9486;DHT22;4781;48.776;9.200;2023-11-21T12:28:07;10.20;99.90
9486;DHT22;4781;48.776;9.200;2023-11-21T12:30:36;10.10;99.90
9486;DHT22;4781;48.776;9.200;2023-11-21T12:33:06;10.10;99.90
9486;DHT22;4781;48.776;9.200;2023-11-21T12:35:35;10.20;99.90
9486;DHT22;4781;48.776;9.200;2023-11-21T12:38:04;10.10;99.90
9486;DHT22;4781;48.776;9.200;2023-11-21T12:40:34;10.10;99.90
9486;DHT22;4781;48.776;9.200;2023-11-21T12:43:03;10.10;99.90
9486;DHT22;4781;48.776;9.200;2023-11-21T12:45:31;10.10;99.90
9486;DHT22;4781;48.776;9.200;2023-11-21T12:48:05;10.00;99.90
9486;DHT22;4781;48.776;9.200;2023-11-21T12:50:38;9.90;99.90
9486;DHT22;4781;48.776;9.200;2023-11-21T12:53:09;9.90;99.90
9486;DHT22;4781;48.776;9.200;2023-11-21T12:55:44;9.90;99.90
9486;DHT22;4781;48.776;9.200;2023-11-21T12:58:14;9.90;99.90
9486;DHT22;4781;48.776;9.200;2023-11-21T13:00:47;9.90;99.90
9486;DHT22;4781;48.776;9.200;2023-11-21T13:03:17;10.00;99.90
9486;DHT22;4781;48.776;9.200;2023-11-21T13:05:50;10.00;99.90
9486;DHT22;4781;48.776;9.200;2023-11-21T13:08:21;10.10;99.90
9486;DHT22;4781;48.776;9.200;2023-11-21T13:10:55;10.00;99.90
9486;DHT22;4781;48.776;9.200;2023-11-21T13:13:25;10.10;99.90
9486;DHT22;4781;48.776;9.200;2023-11-21T13:15:59;10.10;99.90
9486;DHT22;4781;48.776;9.200;2023-11-21T13:18:28;10.10;99.90
9486;DHT22;4781;48.776;9.200;2023-11-21T13:20:59;10.00;99.90
9486;DHT22;4781;48.776;9.200;2023-11-21T13:23:35;10.00;99.90
9486;DHT22;4781;48.776;9.200;2023-11-21T13:26:04;10.10;99.90
9486;DHT22;4781;48.776;9.200;2023-11-21T13:28:33;9.90;99.90
9486;DHT22;4781;48.776;9.200;2023-11-21T13:31:03;9.90;99.90
9486;DHT22;4781;48.776;9.200;2023-11-21T13:33:39;9.80;99.90
9486;DHT22;4781;48.776;9.200;2023-11-21T13:36:09;9.70;99.90
9486;DHT22;4781;48.776;9.200;2023-11-21T13:38:40;9.60;99.90
9486;DHT22;4781;48.776;9.200;2023-11-21T13:41:12;9.50;99.90
9486;DHT22;4781;48.776;9.200;2023-11-21T13:43:41;9.40;99.90
9486;DHT22;4781;48.776;9.200;2023-11-21T13:46:11;9.40;99.90
9486;DHT22;4781;48.776;9.200;2023-11-21T13:48:43;9.40;99.90
9486;DHT22;4781;48.776;9.200;2023-11-21T13:51:13;9.40;99.90
9486;DHT22;4781;48.776;9.200;2023-11-21T13:53:45;9.30;99.90
9486;DHT22;4781;48.776;9.200;2023-11-21T13:56:19;9.30;99.90
9486;DHT22;4781;48.776;9.200;2023-11-21T13:58:49;9.30;99.90
9486;DHT22;4781;48.776;9.200;2023-11-21T14:01:19;9.30;99.90
9486;DHT22;4781;48.776;9.200;2023-11-21T14:03:59;9.40;99.90
9486;DHT22;4781;48.776;9.200;2023-11-21T14:06:48;9.40;99.90
9486;DHT22;4781;48.776;9.200;2023-11-21T14:09:23;9.40;99.90
9486;DHT22;4781;48.776;9.200;2023-11-21T14:11:56;9.30;99.90
9486;DHT22;4781;48.776;9.200;2023-11-21T14:14:26;9.30;99.90
9486;DHT22;4781;48.776;9.200;2023-11-21T14:16:55;9.30;99.90
9486;DHT22;4781;48.776;9.200;2023-11-21T14:19:25;9.20;99.90
9486;DHT22;4781;48.776;9.200;2023-11-21T14:21:58;9.20;99.90
9486;DHT22;4781;48.776;9.200;2023-11-21T14:24:26;9.20;99.90
9486;DHT22;4781;48.776;9.200;2023-11-21T14:26:55;9.20;99.90
9486;DHT22;4781;48.776;9.200;2023-11-21T14:29:24;9.20;99.90
9486;DHT22;4781;48.776;9.200;2023-11-21T14:31:54;9.20;99.90
9486;DHT22;4781;48.776;9.200;2023-11-21T14:34:24;9.20;99.90
9486;DHT22;4781;48.776;9.200;2023-11-21T14:36:53;9.20;99.90
9486;DHT22;4781;48.776;9.200;2023-11-21T14:39:21;9.20;99.90
9486;DHT22;4781;48.776;9.200;2023-11-21T14:41:56;9.20;99.90
9486;DHT22;4781;48.776;9.200;2023-11-21T14:44:27;9.20;99.90
9486;DHT22;4781;48.776;9.200;2023-11-21T14:46:57;9.30;99.90
9486;DHT22;4781;48.776;9.200;2023-11-21T14:49:26;9.30;99.90
9486;DHT22;4781;48.776;9.200;2023-11-21T14:51:57;9.30;99.90
9486;DHT22;4781;48.776;9.200;2023-11-21T14:54:30;9.30;99.90
9486;DHT22;4781;48.776;9.200;2023-11-21T14:57:04;9.30;99.90
9486;DHT22;4781;48.776;9.200;2023-11-21T14:59:42;9.30;99.90
9486;DHT22;4781;48.776;9.200;2023-11-21T15:02:21;9.30;99.90
9486;DHT22;4781;48.776;9.200;2023-11-21T15:04:51;9.20;99.90
9486;DHT22;4781;48.776;9.200;2023-11-21T15:07:21;9.20;99.90
9486;DHT22;4781;48.776;9.200;2023-11-21T15:09:51;9.10;99.90
9486;DHT22;4781;48.776;9.200;2023-11-21T15:12:20;9.10;99.90
9486;DHT22;4781;48.776;9.200;2023-11-21T15:14:51;9.10;99.90
9486;DHT22;4781;48.776;9.200;2023-11-21T15:17:22;9.10;99.90
9486;DHT22;4781;48.776;9.200;2023-11-21T15:19:52;9.10;99.90
9486;DHT22;4781;48.776;9.200;2023-11-21T15:22:21;9.10;99.90
9486;DHT22;4781;48.776;9.200;2023-11-21T15:24:50;9.10;99.90
9486;DHT22;4781;48.776;9.200;2023-11-21T15:27:20;9.20;99.90
9486;DHT22;4781;48.776;9.200;2023-11-21T15:29:48;9.20;99.90
9486;DHT22;4781;48.776;9.200;2023-11-21T15:32:17;9.20;99.90
9486;DHT22;4781;48.776;9.200;2023-11-21T15:34:45;9.10;99.90
9486;DHT22;4781;48.776;9.200;2023-11-21T15:37:14;9.10;99.90
9486;DHT22;4781;48.776;9.200;2023-11-21T15:39:42;9.10;99.90
9486;DHT22;4781;48.776;9.200;2023-11-21T15:42:11;9.10;99.90
9486;DHT22;4781;48.776;9.200;2023-11-21T15:44:40;9.00;99.90
9486;DHT22;4781;48.776;9.200;2023-11-21T15:47:08;9.00;99.90
9486;DHT22;4781;48.776;9.200;2023-11-21T15:49:37;9.00;99.90
9486;DHT22;4781;48.776;9.200;2023-11-21T15:52:05;9.00;99.90
9486;DHT22;4781;48.776;9.200;2023-11-21T15:54:35;8.90;99.90
9486;DHT22;4781;48.776;9.200;2023-11-21T15:57:05;8.90;99.90
9486;DHT22;4781;48.776;9.200;2023-11-21T15:59:34;9.00;99.90
9486;DHT22;4781;48.776;9.200;2023-11-21T16:02:03;8.90;99.90
9486;DHT22;4781;48.776;9.200;2023-11-21T16:04:31;8.90;99.90
9486;DHT22;4781;48.776;9.200;2023-11-21T16:06:59;8.90;99.90
9486;DHT22;4781;48.776;9.200;2023-11-21T16:09:28;8.90;99.90
9486;DHT22;4781;48.776;9.200;2023-11-21T16:12:01;8.90;99.90
9486;DHT22;4781;48.776;9.200;2023-11-21T16:14:33;8.90;99.90
9486;DHT22;4781;48.776;9.200;2023-11-21T16:17:04;8.90;99.90
9486;DHT22;4781;48.776;9.200;2023-11-21T16:19:37;8.90;99.90
9486;DHT22;4781;48.776;9.200;2023-11-21T16:22:06;8.90;99.90
9486;DHT22;4781;48.776;9.200;2023-11-21T16:24:34;8.80;99.90
9486;DHT22;4781;48.776;9.200;2023-11-21T16:27:04;8.80;99.90
9486;DHT22;4781;48.776;9.200;2023-11-21T16:29:34;8.80;99.90
9486;DHT22;4781;48.776;9.200;2023-11-21T16:32:03;8.80;99.90
9486;DHT22;4781;48.776;9.200;2023-11-21T16:34:32;8.80;99.90
9486;DHT22;4781;48.776;9.200;2023-11-21T16:37:02;8.70;99.90
9486;DHT22;4781;48.776;9.200;2023-11-21T16:39:33;8.70;99.90
9486;DHT22;4781;48.776;9.200;2023-11-21T16:42:02;8.70;99.90